DLH424 EDDM-KBOS
Flight info
| Callsign | DLH424 |
|---|---|
| Flight time | N/A |
| Altitude | 40000 |
| Route | GIVMI6E GIVMI Y101 INBED DCT REKDI DCT LOHRE DCT BUB L608 DENUT L610 KOPUL Q60 OKSAW DCT BIBPE DCT FELCA DCT OFSOX DCT SLANY DCT OLGON DCT NEBIN/M084F390 DCT 5330N02000W 5230N03000W 5130N04000W 5030N05000W DCT BUDAR/N0476F400 N436B ALLEX DCT AJJAY OOSHN5 |
| Aircraft | A359/H-SDE2E3GHIJ1J3J4J5LM1ORWXY/LB1D1 |
Departure
| Time | 2026-04-30 07:09 |
|---|---|
| Airport | Munich Airport (EDDM) |
Arrival
| Time | N/A |
|---|---|
| Airport | Boston Logan International Airport (KBOS) |
| Time | Latitude | Longitude | Altitude | Speed | Heading |
|---|---|---|---|---|---|
| 2026-04-30 06:38 | 48.35788 | 11.79248 | 1492 ft | 0 kts | 263° |
| 2026-04-30 06:58 | 48.35788 | 11.79256 | 1476 ft | 4 kts | 263° |
| 2026-04-30 06:58 | 48.35792 | 11.79296 | 1476 ft | 4 kts | 263° |
| 2026-04-30 06:58 | 48.35794 | 11.79330 | 1476 ft | 2 kts | 263° |
| 2026-04-30 06:58 | 48.35794 | 11.79368 | 1476 ft | 4 kts | 288° |
| 2026-04-30 06:59 | 48.35781 | 11.79396 | 1476 ft | 4 kts | 345° |
| 2026-04-30 06:59 | 48.35757 | 11.79401 | 1476 ft | 4 kts | 353° |
| 2026-04-30 06:59 | 48.35743 | 11.79404 | 1476 ft | 0 kts | 353° |
| 2026-04-30 07:02 | 48.35780 | 11.79397 | 1478 ft | 8 kts | 353° |
| 2026-04-30 07:03 | 48.35853 | 11.79385 | 1483 ft | 13 kts | 353° |
| 2026-04-30 07:03 | 48.35941 | 11.79346 | 1479 ft | 14 kts | 346° |
| 2026-04-30 07:03 | 48.36040 | 11.79325 | 1478 ft | 12 kts | 353° |
| 2026-04-30 07:03 | 48.36088 | 11.79253 | 1477 ft | 11 kts | 270° |
| 2026-04-30 07:04 | 48.36079 | 11.79129 | 1483 ft | 13 kts | 264° |
| 2026-04-30 07:04 | 48.36067 | 11.78976 | 1476 ft | 16 kts | 263° |
| 2026-04-30 07:04 | 48.36053 | 11.78798 | 1486 ft | 18 kts | 263° |
| 2026-04-30 07:04 | 48.36043 | 11.78668 | 1491 ft | 19 kts | 263° |
| 2026-04-30 07:05 | 48.36010 | 11.78224 | 1491 ft | 23 kts | 263° |
| 2026-04-30 07:05 | 48.35990 | 11.77975 | 1477 ft | 25 kts | 263° |
| 2026-04-30 07:05 | 48.35969 | 11.77708 | 1491 ft | 26 kts | 264° |
| 2026-04-30 07:06 | 48.35950 | 11.77465 | 1481 ft | 23 kts | 263° |
| 2026-04-30 07:06 | 48.35931 | 11.77213 | 1482 ft | 25 kts | 263° |
| 2026-04-30 07:06 | 48.35914 | 11.76968 | 1491 ft | 20 kts | 269° |
| 2026-04-30 07:06 | 48.35978 | 11.76830 | 1477 ft | 16 kts | 341° |
| 2026-04-30 07:07 | 48.36093 | 11.76806 | 1477 ft | 17 kts | 353° |
| 2026-04-30 07:07 | 48.36216 | 11.76785 | 1480 ft | 15 kts | 353° |
| 2026-04-30 07:07 | 48.36276 | 11.76801 | 1479 ft | 7 kts | 53° |
| 2026-04-30 07:07 | 48.36281 | 11.76835 | 1476 ft | 0 kts | 83° |
| 2026-04-30 07:08 | 48.36282 | 11.76844 | 1476 ft | 9 kts | 83° |
| 2026-04-30 07:08 | 48.36316 | 11.77274 | 1484 ft | 72 kts | 83° |
| 2026-04-30 07:08 | 48.36395 | 11.78312 | 1477 ft | 126 kts | 83° |
| 2026-04-30 07:08 | 48.36523 | 11.79834 | 1674 ft | 155 kts | 81° |
| 2026-04-30 07:09 | 48.36674 | 11.81392 | 2439 ft | 148 kts | 84° |
| 2026-04-30 07:09 | 48.36795 | 11.82897 | 3223 ft | 144 kts | 83° |
| 2026-04-30 07:09 | 48.37237 | 11.84262 | 3885 ft | 152 kts | 54° |
| 2026-04-30 07:09 | 48.38177 | 11.85109 | 4460 ft | 165 kts | 27° |
| 2026-04-30 07:10 | 48.39322 | 11.85658 | 4835 ft | 183 kts | 22° |
| 2026-04-30 07:10 | 48.40639 | 11.86143 | 5086 ft | 208 kts | 13° |
| 2026-04-30 07:10 | 48.42142 | 11.85773 | 5371 ft | 237 kts | 336° |
| 2026-04-30 07:10 | 48.43449 | 11.84048 | 5702 ft | 265 kts | 314° |
| 2026-04-30 07:11 | 48.44655 | 11.81848 | 6132 ft | 282 kts | 311° |
| 2026-04-30 07:11 | 48.45906 | 11.79532 | 6869 ft | 288 kts | 311° |
| 2026-04-30 07:11 | 48.47180 | 11.77215 | 7731 ft | 287 kts | 312° |
| 2026-04-30 07:11 | 48.48473 | 11.74899 | 8599 ft | 289 kts | 312° |
| 2026-04-30 07:12 | 48.49761 | 11.72605 | 9603 ft | 287 kts | 313° |
| 2026-04-30 07:12 | 48.51073 | 11.70284 | 10384 ft | 292 kts | 313° |
| 2026-04-30 07:12 | 48.52405 | 11.67931 | 11097 ft | 297 kts | 314° |
| 2026-04-30 07:12 | 48.53750 | 11.65555 | 11922 ft | 299 kts | 315° |
| 2026-04-30 07:13 | 48.55105 | 11.63164 | 12755 ft | 300 kts | 314° |
| 2026-04-30 07:13 | 48.56462 | 11.60762 | 13596 ft | 301 kts | 314° |
| 2026-04-30 07:13 | 48.57836 | 11.58337 | 14257 ft | 310 kts | 314° |
| 2026-04-30 07:13 | 48.59277 | 11.55796 | 14545 ft | 327 kts | 314° |
| 2026-04-30 07:14 | 48.60791 | 11.53112 | 14814 ft | 345 kts | 314° |
| 2026-04-30 07:14 | 48.62383 | 11.50286 | 15111 ft | 360 kts | 314° |
| 2026-04-30 07:14 | 48.64020 | 11.47373 | 15675 ft | 366 kts | 314° |
| 2026-04-30 07:14 | 48.65679 | 11.44415 | 16308 ft | 370 kts | 314° |
| 2026-04-30 07:15 | 48.67348 | 11.41437 | 16951 ft | 374 kts | 314° |
| 2026-04-30 07:15 | 48.69020 | 11.38465 | 17635 ft | 377 kts | 315° |
| 2026-04-30 07:15 | 48.70899 | 11.35718 | 18282 ft | 375 kts | 325° |
| 2026-04-30 07:15 | 48.72977 | 11.33314 | 18940 ft | 376 kts | 329° |
| 2026-04-30 07:16 | 48.75149 | 11.31075 | 19537 ft | 378 kts | 332° |
| 2026-04-30 07:16 | 48.77373 | 11.28898 | 20143 ft | 382 kts | 333° |
| 2026-04-30 07:16 | 48.79621 | 11.26720 | 20763 ft | 385 kts | 333° |
| 2026-04-30 07:16 | 48.81885 | 11.24507 | 21379 ft | 388 kts | 332° |
| 2026-04-30 07:17 | 48.84225 | 11.22471 | 21976 ft | 387 kts | 340° |
| 2026-04-30 07:17 | 48.86704 | 11.20899 | 22583 ft | 387 kts | 344° |
| 2026-04-30 07:17 | 48.91777 | 11.18152 | 23771 ft | 391 kts | 347° |
| 2026-04-30 07:18 | 48.94373 | 11.16845 | 24322 ft | 394 kts | 347° |
| 2026-04-30 07:18 | 48.96998 | 11.15539 | 24803 ft | 398 kts | 347° |
| 2026-04-30 07:18 | 48.99635 | 11.14226 | 25284 ft | 400 kts | 348° |
| 2026-04-30 07:18 | 49.02294 | 11.12891 | 25801 ft | 403 kts | 348° |
| 2026-04-30 07:19 | 49.04963 | 11.11543 | 26284 ft | 406 kts | 347° |
| 2026-04-30 07:19 | 49.07663 | 11.10171 | 26744 ft | 410 kts | 347° |
| 2026-04-30 07:19 | 49.10374 | 11.08788 | 27181 ft | 413 kts | 347° |
| 2026-04-30 07:19 | 49.13125 | 11.07387 | 27595 ft | 418 kts | 347° |
| 2026-04-30 07:20 | 49.15889 | 11.05977 | 28055 ft | 421 kts | 347° |
| 2026-04-30 07:20 | 49.18645 | 11.04566 | 28517 ft | 423 kts | 347° |
| 2026-04-30 07:20 | 49.21482 | 11.03115 | 28989 ft | 427 kts | 347° |
| 2026-04-30 07:20 | 49.24274 | 11.01679 | 29451 ft | 428 kts | 347° |
| 2026-04-30 07:21 | 49.27105 | 11.00216 | 29909 ft | 431 kts | 347° |
| 2026-04-30 07:21 | 49.29960 | 10.98739 | 30307 ft | 434 kts | 347° |
| 2026-04-30 07:21 | 49.32835 | 10.97249 | 30674 ft | 438 kts | 347° |
| 2026-04-30 07:21 | 49.35679 | 10.95476 | 31012 ft | 446 kts | 340° |
| 2026-04-30 07:22 | 49.40851 | 10.89900 | 31696 ft | 467 kts | 321° |
| 2026-04-30 07:22 | 49.43063 | 10.86190 | 32008 ft | 473 kts | 317° |
| 2026-04-30 07:22 | 49.45190 | 10.82306 | 32332 ft | 477 kts | 315° |
| 2026-04-30 07:23 | 49.47284 | 10.78320 | 32581 ft | 479 kts | 315° |
| 2026-04-30 07:23 | 49.49333 | 10.74354 | 32908 ft | 482 kts | 314° |
| 2026-04-30 07:23 | 49.51417 | 10.70313 | 33196 ft | 484 kts | 315° |
| 2026-04-30 07:23 | 49.53525 | 10.66237 | 33466 ft | 486 kts | 315° |
| 2026-04-30 07:24 | 49.55642 | 10.62164 | 33729 ft | 488 kts | 315° |
| 2026-04-30 07:24 | 49.57768 | 10.58085 | 34008 ft | 490 kts | 315° |
| 2026-04-30 07:24 | 49.59908 | 10.53984 | 34265 ft | 492 kts | 315° |
| 2026-04-30 07:24 | 49.62055 | 10.49870 | 34516 ft | 493 kts | 315° |
| 2026-04-30 07:25 | 49.64203 | 10.45748 | 34830 ft | 492 kts | 315° |
| 2026-04-30 07:25 | 49.66337 | 10.41628 | 35209 ft | 490 kts | 314° |
| 2026-04-30 07:25 | 49.68356 | 10.37389 | 35509 ft | 491 kts | 310° |
| 2026-04-30 07:25 | 49.70275 | 10.33015 | 35797 ft | 492 kts | 309° |
| 2026-04-30 07:26 | 49.72153 | 10.28598 | 36096 ft | 491 kts | 308° |
| 2026-04-30 07:26 | 49.74020 | 10.24189 | 36416 ft | 489 kts | 309° |
| 2026-04-30 07:26 | 49.75890 | 10.19808 | 36736 ft | 487 kts | 309° |
| 2026-04-30 07:26 | 49.77766 | 10.15456 | 37037 ft | 485 kts | 309° |
| 2026-04-30 07:27 | 49.79621 | 10.11188 | 37312 ft | 484 kts | 309° |
| 2026-04-30 07:27 | 49.81504 | 10.06876 | 37599 ft | 483 kts | 309° |
| 2026-04-30 07:27 | 49.83388 | 10.02569 | 37845 ft | 482 kts | 309° |